createdAt,value
2019-03-24T00:02:11.612Z,80.35
2019-03-24T00:04:38.914Z,83.70
2019-03-24T00:07:06.233Z,83.15
2019-03-24T00:09:33.526Z,80.77
2019-03-24T00:12:00.826Z,85.92
2019-03-24T00:14:28.152Z,81.22
2019-03-24T00:16:55.443Z,81.40
2019-03-24T00:19:22.773Z,68.95
2019-03-24T00:21:50.083Z,82.22
2019-03-24T00:24:17.357Z,74.30
2019-03-24T00:26:44.682Z,72.80
2019-03-24T00:29:11.987Z,74.22
2019-03-24T00:31:39.274Z,77.37
2019-03-24T00:34:06.602Z,78.25
2019-03-24T00:36:33.889Z,83.90
2019-03-24T00:39:01.200Z,72.65
2019-03-24T00:41:28.498Z,72.75
2019-03-24T00:43:55.824Z,74.80
2019-03-24T00:46:23.146Z,76.40
2019-03-24T00:48:50.451Z,77.15
2019-03-24T00:51:17.773Z,88.10
2019-03-24T00:53:45.061Z,82.12
2019-03-24T00:56:12.373Z,79.53
2019-03-24T00:58:39.683Z,77.53
2019-03-24T01:01:06.987Z,84.25
2019-03-24T01:03:34.301Z,89.40
2019-03-24T01:06:01.950Z,80.40
2019-03-24T01:08:29.290Z,78.15
2019-03-24T01:10:56.597Z,84.72
2019-03-24T01:13:23.889Z,78.95
2019-03-24T01:15:51.208Z,83.00
2019-03-24T01:18:18.510Z,78.05
2019-03-24T01:20:45.792Z,77.65
2019-03-24T01:23:13.116Z,74.80
2019-03-24T01:25:40.402Z,79.42
2019-03-24T01:28:07.697Z,76.30
2019-03-24T01:30:35.017Z,85.77
2019-03-24T01:33:02.386Z,83.90
2019-03-24T01:35:29.678Z,74.55
2019-03-24T01:37:56.997Z,84.00
2019-03-24T01:40:24.295Z,67.53
2019-03-24T01:42:51.582Z,84.67
2019-03-24T01:45:18.902Z,77.65
2019-03-24T01:47:46.198Z,76.00
2019-03-24T01:50:13.486Z,84.15
2019-03-24T01:52:40.815Z,88.25
2019-03-24T01:55:08.110Z,81.17
2019-03-24T01:57:35.401Z,80.10
2019-03-24T02:00:02.886Z,82.33
2019-03-24T02:02:30.215Z,84.22
2019-03-24T02:04:57.508Z,87.92
2019-03-24T02:07:24.817Z,84.80
2019-03-24T02:09:52.122Z,88.95
2019-03-24T02:12:19.451Z,82.47
2019-03-24T02:14:46.767Z,83.65
2019-03-24T02:17:14.087Z,85.90
2019-03-24T02:19:41.373Z,81.67
2019-03-24T02:22:08.675Z,82.53
2019-03-24T02:24:35.992Z,88.65
2019-03-24T02:27:03.286Z,87.42
2019-03-24T02:29:30.614Z,88.78
2019-03-24T02:31:57.908Z,84.87
2019-03-24T02:34:25.215Z,95.25
2019-03-24T02:36:52.524Z,84.90
2019-03-24T02:39:19.815Z,87.42
2019-03-24T02:41:47.130Z,88.65
2019-03-24T02:44:14.436Z,91.55
2019-03-24T02:46:41.735Z,79.15
2019-03-24T02:49:09.047Z,82.97
2019-03-24T02:51:36.333Z,78.20
2019-03-24T02:54:04.023Z,86.28
2019-03-24T02:56:31.316Z,94.72
2019-03-24T02:58:58.605Z,97.97
2019-03-24T03:01:25.925Z,79.97
2019-03-24T03:03:53.233Z,75.97
2019-03-24T03:06:20.540Z,80.38
2019-03-24T03:08:47.838Z,84.25
2019-03-24T03:11:15.134Z,87.92
2019-03-24T03:13:42.445Z,89.62
2019-03-24T03:16:09.755Z,81.10
2019-03-24T03:18:37.069Z,91.32
2019-03-24T03:21:04.368Z,84.17
2019-03-24T03:23:31.666Z,82.53
2019-03-24T03:25:59.002Z,77.17
2019-03-24T03:28:26.285Z,73.37
2019-03-24T03:30:53.593Z,96.00
2019-03-24T03:33:20.908Z,79.00
2019-03-24T03:35:48.215Z,69.45
2019-03-24T03:38:15.524Z,85.15
2019-03-24T03:40:42.840Z,79.15
2019-03-24T03:43:29.578Z,79.77
2019-03-24T03:45:56.902Z,87.37
2019-03-24T03:48:24.216Z,78.22
2019-03-24T03:50:51.508Z,75.90
2019-03-24T03:53:18.839Z,72.80
2019-03-24T03:55:46.141Z,78.70
2019-03-24T03:58:13.479Z,70.50
2019-03-24T04:00:40.767Z,76.70
2019-03-24T04:03:08.093Z,74.82
2019-03-24T04:05:35.387Z,77.12
2019-03-24T04:08:02.692Z,75.45
2019-03-24T04:10:30.015Z,85.20
2019-03-24T04:12:57.327Z,79.58
2019-03-24T04:15:24.629Z,76.50
2019-03-24T04:17:51.946Z,81.97
2019-03-24T04:20:19.253Z,70.05
2019-03-24T04:22:46.571Z,84.10
2019-03-24T04:25:13.898Z,83.82
2019-03-24T04:27:41.210Z,72.27
2019-03-24T04:30:08.530Z,71.20
2019-03-24T04:32:35.818Z,78.75
2019-03-24T04:35:03.995Z,79.17
2019-03-24T04:37:33.083Z,79.05
2019-03-24T04:40:00.381Z,74.77
2019-03-24T04:42:27.687Z,75.32
2019-03-24T04:44:55.001Z,74.27
2019-03-24T04:47:22.324Z,80.83
2019-03-24T04:49:49.613Z,68.25
2019-03-24T04:52:16.919Z,72.55
2019-03-24T04:54:44.218Z,79.42
2019-03-24T04:57:11.508Z,80.15
2019-03-24T04:59:38.823Z,72.05
2019-03-24T05:02:06.141Z,76.90
2019-03-24T05:04:33.467Z,63.85
2019-03-24T05:07:00.778Z,67.62
2019-03-24T05:09:28.071Z,74.22
2019-03-24T05:11:55.383Z,78.57
2019-03-24T05:14:22.679Z,70.00
2019-03-24T05:16:49.990Z,72.27
2019-03-24T05:19:17.286Z,78.28
2019-03-24T05:21:44.619Z,72.37
2019-03-24T05:24:11.910Z,72.00
2019-03-24T05:26:39.205Z,71.07
2019-03-24T05:29:06.534Z,74.97
2019-03-24T05:31:33.854Z,62.40
2019-03-24T05:34:01.159Z,73.65
2019-03-24T05:36:28.485Z,74.45
2019-03-24T05:38:55.809Z,73.00
2019-03-24T05:41:23.115Z,68.30
2019-03-24T05:43:50.433Z,67.37
2019-03-24T05:46:17.739Z,68.78
2019-03-24T05:48:45.034Z,64.07
2019-03-24T05:51:12.358Z,68.10
2019-03-24T05:53:39.651Z,73.05
2019-03-24T05:56:06.983Z,60.60
2019-03-24T05:58:34.265Z,59.73
2019-03-24T06:01:01.586Z,67.08
2019-03-24T06:03:28.886Z,55.58
2019-03-24T06:05:56.191Z,50.85
2019-03-24T06:08:23.500Z,61.08
2019-03-24T06:10:50.790Z,65.15
2019-03-24T06:13:18.097Z,47.65
2019-03-24T06:15:45.388Z,60.65
2019-03-24T06:18:12.774Z,66.47
2019-03-24T06:20:40.065Z,68.20
2019-03-24T06:23:07.362Z,55.08
2019-03-24T06:25:35.032Z,55.20
2019-03-24T06:28:02.375Z,64.75
2019-03-24T06:30:29.683Z,45.55
2019-03-24T06:32:56.987Z,61.02
2019-03-24T06:35:24.304Z,56.83
2019-03-24T06:37:51.622Z,54.30
2019-03-24T06:40:19.876Z,49.38
2019-03-24T06:42:47.225Z,54.15
2019-03-24T06:45:14.549Z,43.68
2019-03-24T06:47:41.850Z,55.03
2019-03-24T06:50:09.173Z,49.40
2019-03-24T06:52:36.483Z,61.30
2019-03-24T06:55:04.190Z,49.60
2019-03-24T06:57:31.504Z,49.83
2019-03-24T06:59:58.793Z,62.75
2019-03-24T07:02:26.120Z,43.20
2019-03-24T07:04:53.422Z,42.00
2019-03-24T07:07:20.729Z,48.30
2019-03-24T07:09:48.021Z,54.85
2019-03-24T07:12:15.353Z,44.88
2019-03-24T07:14:42.663Z,46.28
2019-03-24T07:17:09.957Z,46.28
2019-03-24T07:19:37.282Z,46.70
2019-03-24T07:22:04.589Z,54.33
2019-03-24T07:24:32.011Z,48.20
2019-03-24T07:26:59.312Z,49.27
2019-03-24T07:29:26.613Z,49.65
2019-03-24T07:31:53.935Z,40.50
2019-03-24T07:34:21.233Z,39.98
2019-03-24T07:36:48.558Z,49.30
2019-03-24T07:39:15.883Z,47.73
2019-03-24T07:41:43.202Z,42.27
2019-03-24T07:44:10.514Z,45.78
2019-03-24T07:46:37.809Z,47.80
2019-03-24T07:49:05.142Z,48.95
2019-03-24T07:51:32.447Z,48.20
2019-03-24T07:53:59.734Z,49.88
2019-03-24T07:56:27.054Z,53.23
2019-03-24T07:58:54.369Z,46.48
2019-03-24T08:01:21.664Z,49.63
2019-03-24T08:03:48.974Z,49.23
2019-03-24T08:06:16.302Z,64.25
2019-03-24T08:08:44.449Z,53.00
2019-03-24T08:11:11.904Z,44.83
2019-03-24T08:13:39.199Z,48.78
2019-03-24T08:16:06.513Z,51.75
2019-03-24T08:18:33.811Z,48.25
2019-03-24T08:21:01.132Z,58.58
2019-03-24T08:23:28.428Z,51.95
2019-03-24T08:25:55.762Z,60.00
2019-03-24T08:28:23.247Z,49.75
2019-03-24T08:30:50.551Z,49.50
2019-03-24T08:33:17.871Z,53.30
2019-03-24T08:35:45.170Z,57.67
2019-03-24T08:38:12.495Z,63.17
2019-03-24T08:40:39.789Z,58.30
2019-03-24T08:43:07.081Z,59.35
2019-03-24T08:45:34.418Z,54.65
2019-03-24T08:48:01.731Z,62.93
2019-03-24T08:50:29.025Z,54.25
2019-03-24T08:52:56.352Z,54.30
2019-03-24T08:55:23.943Z,58.10
2019-03-24T08:57:51.246Z,60.50
2019-03-24T09:00:18.579Z,57.50
2019-03-24T09:02:45.879Z,63.08
2019-03-24T09:05:13.164Z,60.58
2019-03-24T09:07:40.754Z,61.15
2019-03-24T09:10:08.061Z,51.90
2019-03-24T09:12:35.399Z,60.78
2019-03-24T09:15:02.690Z,58.35
2019-03-24T09:17:30.104Z,60.33
2019-03-24T09:19:57.402Z,55.67
2019-03-24T09:22:24.737Z,56.75
2019-03-24T09:24:52.037Z,55.05
2019-03-24T09:27:19.358Z,63.40
2019-03-24T09:29:46.650Z,54.30
2019-03-24T09:32:13.965Z,58.00
2019-03-24T09:34:41.253Z,58.55
2019-03-24T09:37:08.571Z,53.13
2019-03-24T09:39:35.880Z,62.43
2019-03-24T09:42:03.201Z,60.12
2019-03-24T09:44:30.510Z,56.50
2019-03-24T09:46:57.802Z,59.73
2019-03-24T09:49:25.122Z,55.50
2019-03-24T09:51:52.409Z,55.12
2019-03-24T09:54:19.750Z,55.98
2019-03-24T09:56:47.034Z,55.35
2019-03-24T09:59:14.370Z,59.40
2019-03-24T10:01:41.656Z,62.35
2019-03-24T10:04:08.957Z,63.23
2019-03-24T10:06:36.274Z,56.70
2019-03-24T10:09:04.670Z,61.58
2019-03-24T10:11:31.964Z,50.63
2019-03-24T10:13:59.266Z,59.20
2019-03-24T10:16:26.588Z,58.20
2019-03-24T10:18:53.898Z,60.35
2019-03-24T10:21:21.201Z,53.58
2019-03-24T10:23:48.518Z,57.83
2019-03-24T10:26:15.801Z,60.45
2019-03-24T10:28:43.108Z,54.18
2019-03-24T10:31:10.421Z,57.20
2019-03-24T10:33:37.722Z,56.75
2019-03-24T10:36:05.040Z,60.08
2019-03-24T10:38:32.332Z,60.38
2019-03-24T10:40:59.659Z,59.88
2019-03-24T10:43:27.025Z,55.52
2019-03-24T10:45:54.368Z,57.90
2019-03-24T10:48:21.657Z,57.03
2019-03-24T10:50:48.955Z,64.47
2019-03-24T10:53:16.270Z,57.75
2019-03-24T10:55:43.571Z,61.35
2019-03-24T10:58:10.885Z,55.38
2019-03-24T11:00:39.818Z,62.10
2019-03-24T11:03:07.137Z,65.67
2019-03-24T11:05:34.513Z,55.23
2019-03-24T11:08:01.811Z,62.17
2019-03-24T11:10:29.140Z,59.35
2019-03-24T11:12:56.442Z,58.17
2019-03-24T11:15:23.758Z,62.25
2019-03-24T11:17:51.048Z,53.25
2019-03-24T11:20:18.374Z,56.33
2019-03-24T11:22:45.667Z,60.12
2019-03-24T11:25:12.962Z,57.35
2019-03-24T11:27:40.277Z,62.00
2019-03-24T11:30:13.505Z,60.58
2019-03-24T11:32:40.893Z,58.17
2019-03-24T11:35:08.457Z,59.25
2019-03-24T11:37:35.786Z,61.25
2019-03-24T11:40:04.053Z,57.78
2019-03-24T11:42:31.392Z,56.83
2019-03-24T11:44:58.681Z,61.83
2019-03-24T11:47:26.810Z,59.67
2019-03-24T11:49:54.294Z,59.60
2019-03-24T11:52:21.605Z,59.27
2019-03-24T11:54:48.921Z,59.93
2019-03-24T11:57:16.214Z,55.98
2019-03-24T11:59:43.532Z,63.92
2019-03-24T12:02:10.839Z,54.55
2019-03-24T12:04:38.133Z,60.40
2019-03-24T12:07:05.457Z,66.40
2019-03-24T12:09:32.750Z,59.25
2019-03-24T12:12:00.079Z,53.38
2019-03-24T12:14:27.395Z,52.65
2019-03-24T12:16:54.700Z,53.08
2019-03-24T12:19:21.997Z,61.13
2019-03-24T12:21:49.322Z,54.20
2019-03-24T12:24:16.663Z,54.50
2019-03-24T12:26:44.267Z,55.30
2019-03-24T12:29:12.546Z,62.17
2019-03-24T12:31:39.891Z,61.70
2019-03-24T12:34:09.451Z,56.80
2019-03-24T12:36:38.155Z,63.48
2019-03-24T12:39:06.434Z,50.58
2019-03-24T12:41:33.864Z,58.50
2019-03-24T12:44:01.176Z,59.48
2019-03-24T12:46:28.477Z,61.98
2019-03-24T12:48:55.774Z,56.10
2019-03-24T12:51:23.084Z,55.35
2019-03-24T12:53:50.413Z,50.63
2019-03-24T12:56:17.703Z,57.80
2019-03-24T12:58:45.005Z,60.60
2019-03-24T13:01:12.349Z,59.25
2019-03-24T13:03:39.639Z,59.48
2019-03-24T13:06:06.963Z,53.13
2019-03-24T13:08:34.270Z,57.78
2019-03-24T13:11:01.569Z,60.05
2019-03-24T13:13:28.887Z,55.38
2019-03-24T13:15:56.238Z,67.08
2019-03-24T13:18:23.489Z,55.50
2019-03-24T13:20:50.832Z,62.17
2019-03-24T13:23:18.142Z,59.08
2019-03-24T13:25:45.466Z,56.33
2019-03-24T13:28:12.793Z,56.63
2019-03-24T13:30:40.057Z,57.30
2019-03-24T13:33:07.387Z,59.00
2019-03-24T13:35:34.707Z,56.10
2019-03-24T13:38:02.025Z,65.32
2019-03-24T13:40:29.314Z,60.48
2019-03-24T13:42:56.608Z,63.38
2019-03-24T13:45:23.942Z,59.48
2019-03-24T13:47:51.245Z,58.15
2019-03-24T13:50:18.558Z,61.88
2019-03-24T13:52:45.868Z,71.12
2019-03-24T13:55:13.154Z,60.65
2019-03-24T13:57:40.495Z,62.78
2019-03-24T14:00:09.623Z,55.10
2019-03-24T14:02:36.918Z,57.50
2019-03-24T14:05:04.240Z,55.15
2019-03-24T14:07:31.521Z,55.75
2019-03-24T14:09:58.837Z,60.00
2019-03-24T14:12:26.140Z,63.68
2019-03-24T14:14:53.454Z,53.87
2019-03-24T14:17:20.744Z,58.48
2019-03-24T14:19:48.068Z,55.63
2019-03-24T14:22:15.381Z,63.78
2019-03-24T14:24:42.691Z,58.17
2019-03-24T14:27:10.005Z,59.35
2019-03-24T14:29:37.307Z,54.05
2019-03-24T14:32:04.588Z,59.55
2019-03-24T14:34:31.904Z,49.45
2019-03-24T14:36:59.226Z,58.83
2019-03-24T14:39:26.526Z,62.95
2019-03-24T14:41:53.831Z,55.38
2019-03-24T14:44:21.120Z,54.27
2019-03-24T14:46:48.429Z,61.20
2019-03-24T14:49:15.729Z,61.85
2019-03-24T14:51:43.055Z,56.53
2019-03-24T14:54:10.350Z,58.30
2019-03-24T14:56:37.637Z,61.85
2019-03-24T14:59:04.954Z,57.78
2019-03-24T15:01:32.272Z,54.33
2019-03-24T15:03:59.574Z,55.40
2019-03-24T15:06:26.865Z,55.63
2019-03-24T15:08:54.196Z,62.33
2019-03-24T15:11:21.486Z,66.47
2019-03-24T15:13:48.777Z,61.18
2019-03-24T15:16:16.126Z,71.02
2019-03-24T15:18:43.430Z,54.08
2019-03-24T15:21:11.586Z,55.17
2019-03-24T15:23:38.961Z,57.08
2019-03-24T15:26:06.283Z,60.20
2019-03-24T15:28:33.578Z,58.25
2019-03-24T15:31:00.901Z,55.43
2019-03-24T15:33:28.209Z,64.05
2019-03-24T15:35:55.524Z,63.95
2019-03-24T15:38:22.816Z,67.82
2019-03-24T15:40:50.218Z,61.13
2019-03-24T15:43:17.558Z,61.53
2019-03-24T15:45:44.892Z,62.30
2019-03-24T15:48:12.201Z,63.70
2019-03-24T15:50:39.492Z,64.67
2019-03-24T15:53:06.817Z,62.67
2019-03-24T15:55:34.112Z,59.30
2019-03-24T15:58:01.397Z,64.97
2019-03-24T16:00:36.281Z,64.25
2019-03-24T16:03:03.587Z,61.35
2019-03-24T16:05:30.870Z,50.00
2019-03-24T16:07:58.196Z,54.67
2019-03-24T16:10:34.914Z,55.33
2019-03-24T16:12:54.453Z,56.20
2019-03-24T16:15:21.758Z,60.28
2019-03-24T16:17:49.079Z,58.73
2019-03-24T16:20:16.407Z,51.83
2019-03-24T16:22:43.701Z,57.78
2019-03-24T16:25:10.989Z,53.48
2019-03-24T16:27:38.322Z,49.77
2019-03-24T16:30:08.566Z,51.55
2019-03-24T16:32:35.878Z,55.52
2019-03-24T16:35:03.746Z,58.68
2019-03-24T16:37:31.047Z,51.18
2019-03-24T16:39:58.363Z,45.75
2019-03-24T16:42:25.658Z,55.35
2019-03-24T16:44:52.954Z,47.55
2019-03-24T16:47:20.278Z,57.33
2019-03-24T16:49:47.574Z,51.98
2019-03-24T16:52:14.898Z,48.98
2019-03-24T16:54:42.195Z,43.13
2019-03-24T16:57:09.485Z,50.10
2019-03-24T16:59:36.856Z,47.88
2019-03-24T17:02:04.117Z,54.13
2019-03-24T17:04:31.442Z,49.85
2019-03-24T17:06:58.753Z,46.68
2019-03-24T17:09:26.053Z,44.13
2019-03-24T17:11:53.337Z,45.00
2019-03-24T17:14:20.668Z,42.65
2019-03-24T17:16:47.953Z,40.45
2019-03-24T17:19:15.275Z,41.00
2019-03-24T17:21:49.980Z,50.88
2019-03-24T17:24:11.496Z,44.27
2019-03-24T17:26:38.819Z,44.23
2019-03-24T17:29:06.138Z,52.95
2019-03-24T17:31:33.435Z,40.92
2019-03-24T17:34:00.727Z,45.43
2019-03-24T17:36:28.059Z,37.03
2019-03-24T17:38:55.354Z,42.50
2019-03-24T17:41:22.717Z,45.63
2019-03-24T17:43:50.034Z,44.13
2019-03-24T17:46:19.450Z,53.05
2019-03-24T17:48:46.311Z,44.33
2019-03-24T17:51:13.628Z,49.45
2019-03-24T17:53:40.937Z,50.23
2019-03-24T17:56:08.234Z,46.02
2019-03-24T17:58:35.528Z,37.88
2019-03-24T18:01:02.886Z,47.10
2019-03-24T18:03:30.181Z,42.35
2019-03-24T18:05:59.534Z,44.93
2019-03-24T18:08:26.439Z,57.98
2019-03-24T18:10:53.745Z,56.77
2019-03-24T18:13:21.091Z,48.83
2019-03-24T18:15:48.399Z,46.55
2019-03-24T18:18:15.688Z,51.53
2019-03-24T18:20:43.010Z,67.05
2019-03-24T18:23:10.296Z,57.58
2019-03-24T18:25:37.592Z,61.35
2019-03-24T18:28:04.905Z,42.25
2019-03-24T18:30:32.199Z,51.98
2019-03-24T18:32:59.495Z,45.30
2019-03-24T18:35:26.830Z,53.33
2019-03-24T18:37:54.117Z,41.83
2019-03-24T18:40:21.420Z,41.98
2019-03-24T18:42:48.820Z,51.23
2019-03-24T18:45:16.086Z,48.75
2019-03-24T18:47:44.278Z,43.33
2019-03-24T18:50:11.574Z,43.73
2019-03-24T18:52:38.881Z,53.23
2019-03-24T18:55:06.272Z,48.50
2019-03-24T18:57:33.566Z,52.62
2019-03-24T19:00:00.882Z,48.63
2019-03-24T19:02:28.179Z,46.65
2019-03-24T19:04:55.490Z,48.17
2019-03-24T19:07:22.794Z,41.98
2019-03-24T19:09:50.108Z,44.50
2019-03-24T19:12:17.403Z,51.20
2019-03-24T19:14:44.701Z,46.28
2019-03-24T19:17:12.016Z,44.75
2019-03-24T19:19:39.339Z,43.92
2019-03-24T19:22:06.642Z,46.68
2019-03-24T19:24:33.924Z,51.98
2019-03-24T19:27:01.241Z,45.15
2019-03-24T19:29:28.547Z,41.40
2019-03-24T19:31:55.843Z,43.85
2019-03-24T19:34:23.164Z,50.98
2019-03-24T19:36:50.468Z,52.15
2019-03-24T19:39:17.818Z,45.73
2019-03-24T19:41:45.114Z,44.45
2019-03-24T19:44:12.414Z,48.33
2019-03-24T19:46:39.746Z,56.77
2019-03-24T19:49:08.511Z,49.90
2019-03-24T19:51:35.863Z,51.25
2019-03-24T19:54:03.192Z,52.38
2019-03-24T19:56:30.481Z,47.53
2019-03-24T19:58:57.794Z,50.05
2019-03-24T20:01:25.085Z,53.25
2019-03-24T20:03:52.400Z,46.35
2019-03-24T20:06:19.767Z,56.10
2019-03-24T20:08:47.331Z,58.48
2019-03-24T20:11:14.643Z,54.80
2019-03-24T20:13:41.938Z,57.45
2019-03-24T20:16:09.246Z,50.92
2019-03-24T20:18:36.553Z,61.10
2019-03-24T20:21:03.870Z,49.65
2019-03-24T20:23:31.168Z,57.17
2019-03-24T20:25:58.497Z,52.67
2019-03-24T20:28:25.921Z,62.95
2019-03-24T20:30:53.189Z,56.80
2019-03-24T20:33:20.513Z,58.73
2019-03-24T20:35:47.798Z,58.25
2019-03-24T20:38:15.127Z,62.08
2019-03-24T20:40:42.451Z,58.30
2019-03-24T20:43:09.779Z,56.85
2019-03-24T20:45:37.066Z,59.80
2019-03-24T20:48:04.391Z,59.30
2019-03-24T20:50:31.687Z,71.33
2019-03-24T20:53:04.106Z,63.38
2019-03-24T20:55:27.953Z,58.55
2019-03-24T20:57:55.255Z,60.78
2019-03-24T21:00:30.274Z,59.50
2019-03-24T21:02:57.581Z,65.25
2019-03-24T21:05:24.883Z,64.92
2019-03-24T21:07:52.187Z,65.55
2019-03-24T21:10:19.477Z,73.05
2019-03-24T21:12:46.805Z,57.62
2019-03-24T21:15:14.097Z,61.60
2019-03-24T21:17:41.396Z,65.85
2019-03-24T21:20:08.707Z,62.85
2019-03-24T21:22:36.007Z,65.75
2019-03-24T21:25:03.793Z,60.35
2019-03-24T21:27:31.161Z,70.72
2019-03-24T21:29:58.431Z,61.48
2019-03-24T21:32:25.747Z,67.62
2019-03-24T21:34:53.043Z,68.05
2019-03-24T21:37:20.344Z,63.45
2019-03-24T21:39:47.667Z,64.80
2019-03-24T21:42:15.094Z,56.65
2019-03-24T21:44:42.566Z,64.45
2019-03-24T21:47:09.882Z,68.75
2019-03-24T21:49:37.180Z,61.50
2019-03-24T21:52:04.488Z,63.35
2019-03-24T21:54:31.808Z,61.70
2019-03-24T21:56:59.106Z,93.65
2019-03-24T21:59:26.404Z,80.85
2019-03-24T22:01:58.136Z,75.83
2019-03-24T22:04:28.003Z,70.62
2019-03-24T22:06:55.486Z,68.17
2019-03-24T22:09:22.810Z,59.33
2019-03-24T22:11:50.104Z,62.83
2019-03-24T22:14:17.424Z,62.15
2019-03-24T22:16:44.725Z,59.33
2019-03-24T22:19:12.002Z,64.67
2019-03-24T22:21:39.327Z,59.48
2019-03-24T22:24:06.618Z,61.58
2019-03-24T22:26:33.932Z,61.25
2019-03-24T22:29:01.230Z,52.10
2019-03-24T22:31:28.562Z,56.60
2019-03-24T22:33:55.850Z,52.88
2019-03-24T22:36:23.151Z,80.85
2019-03-24T22:38:50.471Z,62.45
2019-03-24T22:41:17.780Z,56.60
2019-03-24T22:43:45.068Z,49.70
2019-03-24T22:46:12.393Z,43.42
2019-03-24T22:48:39.692Z,52.53
2019-03-24T22:51:06.995Z,45.98
2019-03-24T22:53:34.310Z,52.27
2019-03-24T22:56:01.601Z,51.63
2019-03-24T22:58:28.924Z,63.10
2019-03-24T23:00:56.808Z,54.05
2019-03-24T23:03:25.330Z,59.33
2019-03-24T23:05:52.766Z,65.35
2019-03-24T23:08:20.080Z,53.00
2019-03-24T23:10:47.373Z,53.50
2019-03-24T23:13:14.694Z,44.75
2019-03-24T23:15:41.990Z,51.80
2019-03-24T23:18:09.302Z,45.55
2019-03-24T23:20:36.598Z,50.98
2019-03-24T23:23:03.894Z,43.50
2019-03-24T23:25:31.197Z,48.65
2019-03-24T23:27:58.489Z,46.20
2019-03-24T23:30:25.787Z,52.35
2019-03-24T23:32:53.118Z,41.33
2019-03-24T23:35:20.406Z,42.05
2019-03-24T23:37:47.700Z,51.90
2019-03-24T23:40:15.010Z,45.55
2019-03-24T23:42:42.312Z,46.10
2019-03-24T23:45:09.621Z,45.48
2019-03-24T23:47:36.914Z,41.58
2019-03-24T23:50:05.209Z,49.05
2019-03-24T23:52:32.503Z,52.27
2019-03-24T23:54:59.798Z,43.02
2019-03-24T23:57:27.122Z,42.65
2019-03-24T23:59:54.405Z,43.35
